createdAt,value
2023-01-29T03:33:12.664Z,100949.63
2023-01-29T03:35:46.998Z,100957.22
2023-01-29T03:38:15.583Z,100953.78
2023-01-29T03:40:51.068Z,100961.47
2023-01-29T03:43:30.193Z,100951.22
2023-01-29T03:46:04.017Z,100956.34
2023-01-29T03:48:38.833Z,100966.59
2023-01-29T03:51:22.384Z,100961.44
2023-01-29T03:53:54.256Z,100965.75
2023-01-29T03:56:35.429Z,100959.78
2023-01-29T03:59:13.382Z,100962.34
2023-01-29T04:01:47.389Z,100961.28
2023-01-29T04:04:22.920Z,100965.69
2023-01-29T04:06:52.171Z,100964.81
2023-01-29T04:09:24.615Z,100964.69
2023-01-29T04:12:00.529Z,100971.50
2023-01-29T04:14:29.601Z,100976.69
2023-01-29T04:17:02.955Z,100985.25
2023-01-29T04:19:33.881Z,100980.09
2023-01-29T04:22:04.634Z,100967.19
2023-01-29T04:24:33.537Z,100971.28
2023-01-29T04:27:13.335Z,100981.56
2023-01-29T04:29:50.867Z,100985.88
2023-01-29T04:32:48.624Z,100997.75
2023-01-29T04:35:28.478Z,100998.44
2023-01-29T04:38:06.576Z,100997.72
2023-01-29T04:40:45.838Z,101002.00
2023-01-29T04:43:21.661Z,101009.81
2023-01-29T04:46:02.110Z,101007.13
2023-01-29T04:48:39.350Z,101012.13
2023-01-29T04:51:15.468Z,101010.50
2023-01-29T04:53:49.460Z,101012.22
2023-01-29T04:56:23.742Z,101016.59
2023-01-29T04:59:00.159Z,101013.03
2023-01-29T05:01:30.276Z,101019.19
2023-01-29T05:04:01.811Z,101018.28
2023-01-29T05:06:32.357Z,101027.81
2023-01-29T05:09:01.740Z,101027.81
2023-01-29T05:11:32.558Z,101020.03
2023-01-29T05:14:05.426Z,101037.19
2023-01-29T05:16:38.668Z,101028.69
2023-01-29T05:19:07.236Z,101033.00
2023-01-29T05:21:42.861Z,101025.97
2023-01-29T05:24:12.656Z,101025.22
2023-01-29T05:26:42.843Z,101036.38
2023-01-29T05:29:10.519Z,101034.69
2023-01-29T05:31:38.108Z,101044.09
2023-01-29T05:34:05.945Z,101046.78
2023-01-29T05:36:33.858Z,101056.28
2023-01-29T05:39:02.858Z,101051.19
2023-01-29T05:41:30.617Z,101047.78
2023-01-29T05:43:59.669Z,101046.03
2023-01-29T05:46:27.759Z,101058.91
2023-01-29T05:48:55.571Z,101040.63
2023-01-29T05:51:23.564Z,101048.34
2023-01-29T05:53:51.109Z,101061.44
2023-01-29T05:56:20.586Z,101065.78
2023-01-29T05:58:48.900Z,101060.53
2023-01-29T06:01:19.564Z,101074.47
2023-01-29T06:03:47.825Z,101064.13
2023-01-29T06:06:16.477Z,101060.78
2023-01-29T06:08:44.411Z,101081.53
2023-01-29T06:11:14.414Z,101083.13
2023-01-29T06:13:43.747Z,101081.44
2023-01-29T06:16:13.087Z,101076.41
2023-01-29T06:18:44.001Z,101075.38
2023-01-29T06:21:13.666Z,101065.00
2023-01-29T06:23:41.519Z,101079.81
2023-01-29T06:26:12.420Z,101077.81
2023-01-29T06:28:40.321Z,101083.13
2023-01-29T06:31:30.405Z,101075.16
2023-01-29T06:33:59.057Z,101086.25
2023-01-29T06:36:26.729Z,101093.16
2023-01-29T06:38:59.491Z,101087.16
2023-01-29T06:41:27.228Z,101077.56
2023-01-29T06:43:54.768Z,101093.22
2023-01-29T06:46:24.329Z,101083.94
2023-01-29T06:48:52.236Z,101093.53
2023-01-29T06:51:21.413Z,101098.81
2023-01-29T06:53:49.036Z,101085.03
2023-01-29T06:56:16.777Z,101096.34
2023-01-29T06:58:45.273Z,101103.25
2023-01-29T07:01:25.472Z,101098.38
2023-01-29T07:04:02.404Z,101099.13
2023-01-29T07:06:31.021Z,101095.72
2023-01-29T07:08:59.098Z,101076.03
2023-01-29T07:11:28.885Z,101062.94
2023-01-29T07:13:56.573Z,101078.91
2023-01-29T07:16:24.135Z,101088.41
2023-01-29T07:18:52.171Z,101092.81
2023-01-29T07:21:21.650Z,101092.94
2023-01-29T07:23:49.196Z,101086.03
2023-01-29T07:26:17.162Z,101089.66
2023-01-29T07:28:45.167Z,101100.84
2023-01-29T12:57:47.822Z,101076.38
2023-01-29T13:00:20.459Z,101078.31
2023-01-29T13:02:55.857Z,101080.19
2023-01-29T13:05:26.890Z,101081.13
2023-01-29T13:08:01.556Z,101078.63
2023-01-29T13:10:37.793Z,101085.59
2023-01-29T13:13:15.985Z,101086.50
2023-01-29T13:15:44.613Z,101084.69
2023-01-29T13:18:30.070Z,101081.38
2023-01-29T13:20:59.475Z,101081.28
2023-01-29T13:23:34.383Z,101087.34
2023-01-29T13:26:02.307Z,101081.88
2023-01-29T13:28:45.395Z,101101.81
2023-01-29T13:31:33.528Z,101099.16
2023-01-29T13:34:14.015Z,101113.75
2023-01-29T13:36:44.519Z,101091.28
2023-01-29T13:39:23.090Z,101109.59
2023-01-29T13:41:52.239Z,101115.66
2023-01-29T13:44:25.297Z,101112.91
2023-01-29T13:46:57.601Z,101111.25
2023-01-29T13:49:34.801Z,101109.56
2023-01-29T13:52:24.102Z,101105.13
2023-01-29T13:54:55.803Z,101105.09
2023-01-29T13:57:55.681Z,101103.34
2023-01-29T14:00:59.289Z,101099.84
2023-01-29T14:04:04.132Z,101107.59
2023-01-29T14:06:49.638Z,101115.19
2023-01-29T14:09:55.928Z,101109.81
2023-01-29T14:12:44.288Z,101111.56
2023-01-29T14:15:24.069Z,101099.34
2023-01-29T14:18:24.770Z,101120.06
2023-01-29T14:21:01.401Z,101131.38
2023-01-29T14:23:40.489Z,101131.31
2023-01-29T14:26:24.388Z,101125.16
2023-01-29T14:29:00.744Z,101134.59
2023-01-29T14:31:31.394Z,101125.13
2023-01-29T14:34:06.695Z,101127.84
2023-01-29T14:36:40.496Z,101131.28
2023-01-29T14:39:21.111Z,101141.56
2023-01-29T14:41:50.770Z,101136.31
2023-01-29T14:44:57.638Z,101143.19
2023-01-29T14:47:57.429Z,101135.34
2023-01-29T14:50:46.586Z,101137.75
2023-01-29T14:53:20.826Z,101147.28
2023-01-29T14:55:53.315Z,101152.50
2023-01-29T14:58:28.084Z,101140.44
2023-01-29T15:00:59.655Z,101150.69
2023-01-29T15:03:39.732Z,101172.19
2023-01-29T15:06:15.634Z,101165.34
2023-01-29T15:08:49.373Z,101172.22
2023-01-29T15:11:25.769Z,101153.94
2023-01-29T15:14:00.687Z,101159.25
2023-01-29T15:16:35.405Z,101162.59
2023-01-29T15:19:14.402Z,101178.06
2023-01-29T15:22:05.260Z,101165.25
2023-01-29T15:24:33.486Z,101165.28
2023-01-29T15:27:01.709Z,101157.34
2023-01-29T15:29:30.001Z,101166.97
2023-01-29T21:45:57.492Z,101341.72
2023-01-29T21:48:25.677Z,101349.53
2023-01-29T21:50:53.377Z,101347.88
2023-01-29T21:53:21.176Z,101345.28
2023-01-29T21:55:48.824Z,101338.38
2023-01-29T21:58:16.435Z,101338.41
2023-01-29T22:00:44.697Z,101339.16
2023-01-29T22:03:14.088Z,101331.44
2023-01-29T22:05:42.315Z,101334.97
2023-01-29T22:08:10.440Z,101329.78
2023-01-29T22:10:38.436Z,101321.13
2023-01-29T22:13:06.793Z,101334.13
2023-01-29T22:15:34.841Z,101328.97
2023-01-29T22:18:02.627Z,101329.75
2023-01-29T22:20:31.761Z,101322.78
2023-01-29T22:22:59.584Z,101332.28
2023-01-29T22:25:27.647Z,101335.59
2023-01-29T22:27:55.255Z,101331.38
2023-01-29T22:30:22.965Z,101332.19
2023-01-29T22:32:51.351Z,101333.09
2023-01-29T22:35:19.138Z,101330.44
2023-01-29T22:37:48.554Z,101322.63
2023-01-29T22:40:16.895Z,101332.16
2023-01-29T22:42:44.762Z,101326.03
2023-01-29T22:45:12.661Z,101318.19
2023-01-29T22:47:40.842Z,101317.19
2023-01-29T22:50:09.703Z,101327.59
2023-01-29T22:52:37.412Z,101322.44
2023-01-29T22:55:10.163Z,101325.69
2023-01-29T22:57:37.985Z,101333.53
2023-01-29T23:00:10.795Z,101310.81
2023-01-29T23:02:38.616Z,101318.53
2023-01-29T23:05:07.569Z,101311.94
2023-01-29T23:07:35.327Z,101322.22
2023-01-29T23:10:03.197Z,101320.13
2023-01-29T23:12:32.459Z,101323.25
2023-01-29T23:15:00.167Z,101317.72
2023-01-29T23:17:27.918Z,101316.47
2023-01-29T23:19:55.580Z,101318.84
2023-01-29T23:22:23.233Z,101321.94
2023-01-29T23:24:51.322Z,101326.03
2023-01-29T23:27:19.409Z,101322.38
2023-01-29T23:29:49.103Z,101317.75
2023-01-29T23:32:18.924Z,101321.19
2023-01-29T23:34:46.672Z,101317.63
2023-01-29T23:37:14.344Z,101325.97
2023-01-29T23:39:42.267Z,101323.19
2023-01-29T23:42:09.942Z,101321.22
2023-01-29T23:44:37.456Z,101317.72
2023-01-29T23:47:07.168Z,101306.88
2023-01-29T23:49:35.178Z,101329.56
2023-01-29T23:52:02.912Z,101323.50
2023-01-29T23:54:31.197Z,101311.50
2023-01-29T23:56:58.893Z,101321.78
2023-01-29T23:59:27.365Z,101332.97
